sensor_id;sensor_type;location;lat;lon;timestamp;pressure;altitude;pressure_sealevel;temperature;humidity
25420;BME280;13354;48.174;11.566;2022-11-15T00:01:32;95657.22;;;6.77;84.35
25420;BME280;13354;48.174;11.566;2022-11-15T00:03:57;95653.59;;;6.78;83.98
25420;BME280;13354;48.174;11.566;2022-11-15T00:06:23;95653.22;;;6.90;83.04
25420;BME280;13354;48.174;11.566;2022-11-15T00:08:48;95655.72;;;6.83;83.53
25420;BME280;13354;48.174;11.566;2022-11-15T00:11:13;95644.41;;;6.74;83.97
25420;BME280;13354;48.174;11.566;2022-11-15T00:13:39;95651.31;;;6.67;84.19
25420;BME280;13354;48.174;11.566;2022-11-15T00:16:04;95655.44;;;6.62;84.48
25420;BME280;13354;48.174;11.566;2022-11-15T00:18:30;95658.06;;;6.62;84.68
25420;BME280;13354;48.174;11.566;2022-11-15T00:20:56;95651.16;;;6.61;84.73
25420;BME280;13354;48.174;11.566;2022-11-15T00:23:27;95637.72;;;6.56;84.40
25420;BME280;13354;48.174;11.566;2022-11-15T00:25:58;95641.50;;;6.53;84.93
25420;BME280;13354;48.174;11.566;2022-11-15T00:28:25;95638.38;;;6.49;84.96
25420;BME280;13354;48.174;11.566;2022-11-15T00:30:50;95637.03;;;6.53;84.69
25420;BME280;13354;48.174;11.566;2022-11-15T00:33:16;95642.00;;;6.48;84.69
25420;BME280;13354;48.174;11.566;2022-11-15T00:35:41;95640.19;;;6.49;84.94
25420;BME280;13354;48.174;11.566;2022-11-15T00:38:06;95641.81;;;6.50;84.25
25420;BME280;13354;48.174;11.566;2022-11-15T00:40:32;95641.34;;;6.46;83.67
25420;BME280;13354;48.174;11.566;2022-11-15T00:42:57;95646.09;;;6.43;83.82
25420;BME280;13354;48.174;11.566;2022-11-15T00:45:23;95632.47;;;6.39;83.23
25420;BME280;13354;48.174;11.566;2022-11-15T00:47:49;95636.09;;;6.38;83.52
25420;BME280;13354;48.174;11.566;2022-11-15T00:50:15;95626.91;;;6.34;83.56
25420;BME280;13354;48.174;11.566;2022-11-15T00:52:41;95623.44;;;6.34;83.39
25420;BME280;13354;48.174;11.566;2022-11-15T00:55:06;95630.34;;;6.35;83.42
25420;BME280;13354;48.174;11.566;2022-11-15T00:57:32;95622.47;;;6.35;83.01
25420;BME280;13354;48.174;11.566;2022-11-15T00:59:57;95617.50;;;6.40;82.06
25420;BME280;13354;48.174;11.566;2022-11-15T01:02:22;95616.06;;;6.37;82.23
25420;BME280;13354;48.174;11.566;2022-11-15T01:04:47;95613.06;;;6.40;82.14
25420;BME280;13354;48.174;11.566;2022-11-15T01:07:13;95605.78;;;6.59;80.72
25420;BME280;13354;48.174;11.566;2022-11-15T01:09:38;95605.34;;;6.47;80.46
25420;BME280;13354;48.174;11.566;2022-11-15T01:12:04;95600.41;;;6.44;81.12
25420;BME280;13354;48.174;11.566;2022-11-15T01:14:30;95600.28;;;6.37;81.00
25420;BME280;13354;48.174;11.566;2022-11-15T01:16:55;95596.97;;;6.35;81.38
25420;BME280;13354;48.174;11.566;2022-11-15T01:19:21;95597.97;;;6.34;81.05
25420;BME280;13354;48.174;11.566;2022-11-15T01:21:49;95590.09;;;6.34;81.11
25420;BME280;13354;48.174;11.566;2022-11-15T01:24:14;95595.84;;;6.21;81.35
25420;BME280;13354;48.174;11.566;2022-11-15T01:26:40;95598.47;;;6.21;81.49
25420;BME280;13354;48.174;11.566;2022-11-15T01:29:05;95591.25;;;6.23;81.21
25420;BME280;13354;48.174;11.566;2022-11-15T01:31:31;95590.94;;;6.26;81.37
25420;BME280;13354;48.174;11.566;2022-11-15T01:33:56;95584.69;;;6.11;81.56
25420;BME280;13354;48.174;11.566;2022-11-15T01:36:22;95580.44;;;6.02;82.35
25420;BME280;13354;48.174;11.566;2022-11-15T01:38:56;95575.69;;;5.97;82.14
25420;BME280;13354;48.174;11.566;2022-11-15T01:41:30;95577.97;;;5.92;82.50
25420;BME280;13354;48.174;11.566;2022-11-15T01:44:28;95572.19;;;5.89;82.52
25420;BME280;13354;48.174;11.566;2022-11-15T01:46:46;95568.59;;;5.90;82.24
25420;BME280;13354;48.174;11.566;2022-11-15T01:49:19;95559.72;;;5.91;82.06
25420;BME280;13354;48.174;11.566;2022-11-15T01:51:45;95562.88;;;5.86;82.04
25420;BME280;13354;48.174;11.566;2022-11-15T01:54:14;95564.66;;;5.86;81.84
25420;BME280;13354;48.174;11.566;2022-11-15T01:56:48;95564.50;;;5.95;81.57
25420;BME280;13354;48.174;11.566;2022-11-15T01:59:15;95565.31;;;5.96;81.55
25420;BME280;13354;48.174;11.566;2022-11-15T02:01:41;95552.34;;;6.02;81.18
25420;BME280;13354;48.174;11.566;2022-11-15T02:04:13;95554.66;;;6.05;81.00
25420;BME280;13354;48.174;11.566;2022-11-15T02:06:41;95545.44;;;6.10;81.22
25420;BME280;13354;48.174;11.566;2022-11-15T02:09:08;95550.69;;;6.10;80.94
25420;BME280;13354;48.174;11.566;2022-11-15T02:11:34;95547.44;;;6.08;81.18
25420;BME280;13354;48.174;11.566;2022-11-15T02:14:00;95541.50;;;6.14;80.74
25420;BME280;13354;48.174;11.566;2022-11-15T02:16:41;95538.56;;;6.00;80.96
25420;BME280;13354;48.174;11.566;2022-11-15T02:19:29;95539.22;;;5.86;81.47
25420;BME280;13354;48.174;11.566;2022-11-15T02:24:49;95543.31;;;5.80;82.08
25420;BME280;13354;48.174;11.566;2022-11-15T02:30:24;95539.69;;;5.81;81.75
25420;BME280;13354;48.174;11.566;2022-11-15T02:35:59;95542.66;;;5.62;81.67
25420;BME280;13354;48.174;11.566;2022-11-15T02:38:33;95532.34;;;5.52;81.72
25420;BME280;13354;48.174;11.566;2022-11-15T02:41:04;95541.50;;;5.48;82.46
25420;BME280;13354;48.174;11.566;2022-11-15T02:43:59;95542.00;;;5.52;82.55
25420;BME280;13354;48.174;11.566;2022-11-15T02:46:36;95531.84;;;5.49;82.38
25420;BME280;13354;48.174;11.566;2022-11-15T02:49:21;95526.75;;;5.39;82.68
25420;BME280;13354;48.174;11.566;2022-11-15T02:51:49;95532.50;;;5.35;83.25
25420;BME280;13354;48.174;11.566;2022-11-15T02:54:20;95539.06;;;5.30;83.36
25420;BME280;13354;48.174;11.566;2022-11-15T02:56:47;95523.63;;;5.27;83.93
25420;BME280;13354;48.174;11.566;2022-11-15T03:02:16;95522.81;;;5.27;84.00
25420;BME280;13354;48.174;11.566;2022-11-15T03:04:44;95519.19;;;5.28;83.60
25420;BME280;13354;48.174;11.566;2022-11-15T03:07:24;95516.06;;;5.16;83.59
25420;BME280;13354;48.174;11.566;2022-11-15T03:12:33;95500.81;;;5.20;84.23
25420;BME280;13354;48.174;11.566;2022-11-15T03:15:12;95506.53;;;5.15;84.00
25420;BME280;13354;48.174;11.566;2022-11-15T03:17:49;95500.28;;;5.08;84.14
25420;BME280;13354;48.174;11.566;2022-11-15T03:20:17;95496.53;;;5.11;84.13
25420;BME280;13354;48.174;11.566;2022-11-15T03:22:45;95503.59;;;5.10;84.24
25420;BME280;13354;48.174;11.566;2022-11-15T03:25:18;95497.66;;;5.08;84.34
25420;BME280;13354;48.174;11.566;2022-11-15T03:27:50;95496.22;;;4.97;84.55
25420;BME280;13354;48.174;11.566;2022-11-15T03:30:18;95486.22;;;5.01;84.62
25420;BME280;13354;48.174;11.566;2022-11-15T03:32:49;95484.22;;;5.03;84.56
25420;BME280;13354;48.174;11.566;2022-11-15T03:35:21;95483.59;;;5.01;84.29
25420;BME280;13354;48.174;11.566;2022-11-15T03:38:05;95485.88;;;5.04;84.49
25420;BME280;13354;48.174;11.566;2022-11-15T03:40:39;95476.53;;;5.01;84.11
25420;BME280;13354;48.174;11.566;2022-11-15T03:45:43;95473.91;;;5.01;84.22
25420;BME280;13354;48.174;11.566;2022-11-15T03:48:14;95476.34;;;5.03;83.81
25420;BME280;13354;48.174;11.566;2022-11-15T03:50:43;95473.91;;;5.18;83.43
25420;BME280;13354;48.174;11.566;2022-11-15T03:53:10;95484.22;;;5.11;83.45
25420;BME280;13354;48.174;11.566;2022-11-15T03:55:35;95480.31;;;5.23;83.29
25420;BME280;13354;48.174;11.566;2022-11-15T03:58:01;95475.38;;;5.28;82.80
25420;BME280;13354;48.174;11.566;2022-11-15T04:00:27;95472.59;;;5.30;82.95
25420;BME280;13354;48.174;11.566;2022-11-15T04:02:53;95473.91;;;5.26;82.89
25420;BME280;13354;48.174;11.566;2022-11-15T04:05:18;95474.41;;;5.13;82.58
25420;BME280;13354;48.174;11.566;2022-11-15T04:07:44;95467.84;;;5.01;82.77
25420;BME280;13354;48.174;11.566;2022-11-15T04:10:10;95466.38;;;4.98;82.79
25420;BME280;13354;48.174;11.566;2022-11-15T04:12:39;95464.88;;;4.96;82.99
25420;BME280;13354;48.174;11.566;2022-11-15T04:15:09;95459.63;;;4.96;83.34
25420;BME280;13354;48.174;11.566;2022-11-15T04:20:04;95456.19;;;4.95;83.00
25420;BME280;13354;48.174;11.566;2022-11-15T04:22:48;95454.38;;;4.88;83.39
25420;BME280;13354;48.174;11.566;2022-11-15T04:25:32;95449.63;;;4.91;83.36
25420;BME280;13354;48.174;11.566;2022-11-15T04:27:57;95454.69;;;4.84;83.47
25420;BME280;13354;48.174;11.566;2022-11-15T04:30:23;95446.81;;;4.84;83.42
25420;BME280;13354;48.174;11.566;2022-11-15T04:32:48;95443.38;;;4.84;83.25
25420;BME280;13354;48.174;11.566;2022-11-15T04:35:13;95443.56;;;4.91;83.49
25420;BME280;13354;48.174;11.566;2022-11-15T04:37:39;95440.59;;;4.85;83.18
25420;BME280;13354;48.174;11.566;2022-11-15T04:40:05;95436.00;;;4.96;82.55
25420;BME280;13354;48.174;11.566;2022-11-15T04:42:30;95434.69;;;4.92;82.23
25420;BME280;13354;48.174;11.566;2022-11-15T04:44:56;95430.59;;;4.89;82.66
25420;BME280;13354;48.174;11.566;2022-11-15T04:47:21;95443.56;;;4.91;82.68
25420;BME280;13354;48.174;11.566;2022-11-15T04:49:46;95438.31;;;5.07;81.87
25420;BME280;13354;48.174;11.566;2022-11-15T04:52:12;95437.31;;;5.41;79.02
25420;BME280;13354;48.174;11.566;2022-11-15T04:54:37;95439.63;;;5.36;79.42
25420;BME280;13354;48.174;11.566;2022-11-15T04:57:02;95438.50;;;5.38;79.87
25420;BME280;13354;48.174;11.566;2022-11-15T04:59:28;95439.97;;;5.16;80.90
25420;BME280;13354;48.174;11.566;2022-11-15T05:01:53;95435.19;;;5.03;81.53
25420;BME280;13354;48.174;11.566;2022-11-15T05:04:18;95430.13;;;5.10;81.76
25420;BME280;13354;48.174;11.566;2022-11-15T05:06:45;95434.56;;;5.01;81.62
25420;BME280;13354;48.174;11.566;2022-11-15T05:09:11;95429.94;;;5.03;81.78
25420;BME280;13354;48.174;11.566;2022-11-15T05:11:38;95423.88;;;5.11;81.40
25420;BME280;13354;48.174;11.566;2022-11-15T05:14:03;95426.00;;;5.07;81.78
25420;BME280;13354;48.174;11.566;2022-11-15T05:16:29;95426.38;;;5.04;82.09
25420;BME280;13354;48.174;11.566;2022-11-15T05:18:54;95425.50;;;5.04;82.18
25420;BME280;13354;48.174;11.566;2022-11-15T05:21:20;95423.38;;;5.07;81.72
25420;BME280;13354;48.174;11.566;2022-11-15T05:23:45;95414.72;;;4.99;80.82
25420;BME280;13354;48.174;11.566;2022-11-15T05:26:11;95407.97;;;4.88;80.86
25420;BME280;13354;48.174;11.566;2022-11-15T05:28:37;95413.22;;;4.80;80.97
25420;BME280;13354;48.174;11.566;2022-11-15T05:31:07;95416.00;;;4.70;81.31
25420;BME280;13354;48.174;11.566;2022-11-15T05:33:33;95402.38;;;4.75;81.63
25420;BME280;13354;48.174;11.566;2022-11-15T05:36:03;95401.75;;;4.81;81.06
25420;BME280;13354;48.174;11.566;2022-11-15T05:38:30;95390.25;;;4.82;81.30
25420;BME280;13354;48.174;11.566;2022-11-15T05:40:55;95391.44;;;4.88;79.89
25420;BME280;13354;48.174;11.566;2022-11-15T05:43:22;95394.88;;;4.88;80.28
25420;BME280;13354;48.174;11.566;2022-11-15T05:45:48;95393.56;;;4.84;80.25
25420;BME280;13354;48.174;11.566;2022-11-15T05:48:14;95393.06;;;4.89;80.10
25420;BME280;13354;48.174;11.566;2022-11-15T05:50:42;95398.66;;;4.94;79.62
25420;BME280;13354;48.174;11.566;2022-11-15T05:53:10;95393.88;;;5.14;78.67
25420;BME280;13354;48.174;11.566;2022-11-15T05:55:38;95398.31;;;5.13;79.23
25420;BME280;13354;48.174;11.566;2022-11-15T05:58:04;95395.34;;;5.08;79.80
25420;BME280;13354;48.174;11.566;2022-11-15T06:00:30;95392.06;;;5.06;79.37
25420;BME280;13354;48.174;11.566;2022-11-15T06:02:55;95386.16;;;5.04;79.35
25420;BME280;13354;48.174;11.566;2022-11-15T06:05:21;95384.53;;;4.87;79.84
25420;BME280;13354;48.174;11.566;2022-11-15T06:07:46;95381.25;;;4.76;80.32
25420;BME280;13354;48.174;11.566;2022-11-15T06:10:11;95380.75;;;4.73;80.65
25420;BME280;13354;48.174;11.566;2022-11-15T06:12:37;95382.88;;;4.69;80.93
25420;BME280;13354;48.174;11.566;2022-11-15T06:15:02;95379.94;;;4.64;80.96
25420;BME280;13354;48.174;11.566;2022-11-15T06:17:28;95382.72;;;4.63;81.02
25420;BME280;13354;48.174;11.566;2022-11-15T06:19:54;95379.94;;;4.64;81.11
25420;BME280;13354;48.174;11.566;2022-11-15T06:22:19;95387.63;;;4.66;81.30
25420;BME280;13354;48.174;11.566;2022-11-15T06:24:45;95381.41;;;4.67;81.70
25420;BME280;13354;48.174;11.566;2022-11-15T06:27:11;95376.84;;;4.69;81.84
25420;BME280;13354;48.174;11.566;2022-11-15T06:29:36;95379.78;;;4.82;81.17
25420;BME280;13354;48.174;11.566;2022-11-15T06:32:01;95373.56;;;4.83;80.60
25420;BME280;13354;48.174;11.566;2022-11-15T06:34:27;95372.56;;;4.68;80.71
25420;BME280;13354;48.174;11.566;2022-11-15T06:36:52;95371.59;;;4.60;81.36
25420;BME280;13354;48.174;11.566;2022-11-15T06:39:17;95386.66;;;4.58;81.75
25420;BME280;13354;48.174;11.566;2022-11-15T06:41:43;95386.16;;;4.55;81.54
25420;BME280;13354;48.174;11.566;2022-11-15T06:44:08;95389.75;;;4.54;81.62
25420;BME280;13354;48.174;11.566;2022-11-15T06:46:34;95391.56;;;4.53;81.62
25420;BME280;13354;48.174;11.566;2022-11-15T06:48:59;95399.09;;;4.56;81.67
25420;BME280;13354;48.174;11.566;2022-11-15T06:51:25;95392.56;;;4.60;82.02
25420;BME280;13354;48.174;11.566;2022-11-15T06:53:50;95385.84;;;4.66;82.12
25420;BME280;13354;48.174;11.566;2022-11-15T06:56:15;95384.53;;;4.62;82.18
25420;BME280;13354;48.174;11.566;2022-11-15T06:58:40;95389.28;;;4.67;82.32
25420;BME280;13354;48.174;11.566;2022-11-15T07:01:11;95386.31;;;4.70;82.43
25420;BME280;13354;48.174;11.566;2022-11-15T07:03:41;95396.19;;;4.76;82.27
25420;BME280;13354;48.174;11.566;2022-11-15T07:06:08;95397.63;;;4.78;81.91
25420;BME280;13354;48.174;11.566;2022-11-15T07:08:34;95396.34;;;4.82;82.12
25420;BME280;13354;48.174;11.566;2022-11-15T07:11:02;95396.66;;;4.88;82.15
25420;BME280;13354;48.174;11.566;2022-11-15T07:13:29;95403.69;;;5.12;85.26
25420;BME280;13354;48.174;11.566;2022-11-15T07:15:58;95394.00;;;5.37;88.19
25420;BME280;13354;48.174;11.566;2022-11-15T07:18:23;95387.59;;;5.47;86.70
25420;BME280;13354;48.174;11.566;2022-11-15T07:20:48;95394.13;;;5.60;86.44
25420;BME280;13354;48.174;11.566;2022-11-15T07:23:14;95389.34;;;5.63;84.99
25420;BME280;13354;48.174;11.566;2022-11-15T07:25:39;95388.66;;;5.94;81.19
25420;BME280;13354;48.174;11.566;2022-11-15T07:28:05;95393.84;;;6.02;76.38
25420;BME280;13354;48.174;11.566;2022-11-15T07:30:30;95391.72;;;6.05;78.78
25420;BME280;13354;48.174;11.566;2022-11-15T07:32:57;95392.19;;;6.09;79.38
25420;BME280;13354;48.174;11.566;2022-11-15T07:35:23;95395.22;;;6.29;77.35
25420;BME280;13354;48.174;11.566;2022-11-15T07:38:02;95394.25;;;6.30;76.11
25420;BME280;13354;48.174;11.566;2022-11-15T07:40:29;95392.56;;;6.29;74.50
25420;BME280;13354;48.174;11.566;2022-11-15T07:43:02;95386.09;;;6.71;73.08
25420;BME280;13354;48.174;11.566;2022-11-15T07:45:28;95384.03;;;6.58;74.10
25420;BME280;13354;48.174;11.566;2022-11-15T07:47:54;95381.81;;;6.47;74.13
25420;BME280;13354;48.174;11.566;2022-11-15T07:50:21;95374.31;;;6.59;73.34
25420;BME280;13354;48.174;11.566;2022-11-15T07:52:47;95369.94;;;6.51;73.06
25420;BME280;13354;48.174;11.566;2022-11-15T07:55:12;95374.50;;;6.57;74.73
25420;BME280;13354;48.174;11.566;2022-11-15T07:57:37;95378.56;;;6.68;74.84
25420;BME280;13354;48.174;11.566;2022-11-15T08:00:04;95379.31;;;6.76;74.65
25420;BME280;13354;48.174;11.566;2022-11-15T08:02:30;95377.25;;;6.87;74.54
25420;BME280;13354;48.174;11.566;2022-11-15T08:04:55;95377.19;;;6.95;74.30
25420;BME280;13354;48.174;11.566;2022-11-15T08:07:20;95366.25;;;7.06;72.14
25420;BME280;13354;48.174;11.566;2022-11-15T08:09:46;95368.72;;;7.08;71.53
25420;BME280;13354;48.174;11.566;2022-11-15T08:12:11;95359.47;;;7.12;72.04
25420;BME280;13354;48.174;11.566;2022-11-15T08:14:36;95360.66;;;7.24;72.93
25420;BME280;13354;48.174;11.566;2022-11-15T08:17:02;95361.34;;;7.41;71.90
25420;BME280;13354;48.174;11.566;2022-11-15T08:19:27;95349.78;;;7.86;71.09
25420;BME280;13354;48.174;11.566;2022-11-15T08:21:53;95344.06;;;8.49;69.14
25420;BME280;13354;48.174;11.566;2022-11-15T08:24:18;95321.88;;;8.86;68.00
25420;BME280;13354;48.174;11.566;2022-11-15T08:26:43;95318.06;;;9.44;66.48
25420;BME280;13354;48.174;11.566;2022-11-15T08:29:09;95311.88;;;10.00;63.94
25420;BME280;13354;48.174;11.566;2022-11-15T08:31:35;95306.75;;;10.47;62.50
25420;BME280;13354;48.174;11.566;2022-11-15T08:34:02;95306.63;;;11.08;60.32
25420;BME280;13354;48.174;11.566;2022-11-15T08:36:28;95295.81;;;11.36;58.79
25420;BME280;13354;48.174;11.566;2022-11-15T08:38:53;95300.06;;;11.57;57.50
25420;BME280;13354;48.174;11.566;2022-11-15T08:41:32;95301.44;;;11.79;56.59
25420;BME280;13354;48.174;11.566;2022-11-15T08:43:58;95297.47;;;12.15;56.12
25420;BME280;13354;48.174;11.566;2022-11-15T08:46:24;95295.59;;;12.61;54.91
25420;BME280;13354;48.174;11.566;2022-11-15T08:48:49;95300.38;;;12.77;53.88
25420;BME280;13354;48.174;11.566;2022-11-15T08:51:15;95301.16;;;12.52;53.67
25420;BME280;13354;48.174;11.566;2022-11-15T08:53:41;95298.34;;;12.79;52.40
25420;BME280;13354;48.174;11.566;2022-11-15T08:56:08;95303.84;;;12.77;52.02
25420;BME280;13354;48.174;11.566;2022-11-15T08:58:35;95314.66;;;13.39;51.66
25420;BME280;13354;48.174;11.566;2022-11-15T09:01:01;95305.56;;;14.09;50.18
25420;BME280;13354;48.174;11.566;2022-11-15T09:03:26;95314.34;;;14.09;48.95
25420;BME280;13354;48.174;11.566;2022-11-15T09:05:58;95313.75;;;13.70;49.56
25420;BME280;13354;48.174;11.566;2022-11-15T09:08:25;95311.25;;;13.75;48.97
25420;BME280;13354;48.174;11.566;2022-11-15T09:10:54;95309.06;;;13.66;48.71
25420;BME280;13354;48.174;11.566;2022-11-15T09:13:19;95294.22;;;14.13;48.16
25420;BME280;13354;48.174;11.566;2022-11-15T09:15:45;95287.72;;;14.27;47.30
25420;BME280;13354;48.174;11.566;2022-11-15T09:18:10;95282.84;;;13.88;48.29
25420;BME280;13354;48.174;11.566;2022-11-15T09:20:36;95285.75;;;13.86;48.93
25420;BME280;13354;48.174;11.566;2022-11-15T09:23:02;95287.06;;;13.95;48.96
25420;BME280;13354;48.174;11.566;2022-11-15T09:25:28;95283.88;;;13.68;49.05
25420;BME280;13354;48.174;11.566;2022-11-15T09:27:54;95280.03;;;13.64;48.79
25420;BME280;13354;48.174;11.566;2022-11-15T09:30:19;95270.06;;;13.60;49.58
25420;BME280;13354;48.174;11.566;2022-11-15T09:32:44;95268.72;;;13.50;50.80
25420;BME280;13354;48.174;11.566;2022-11-15T09:35:10;95270.19;;;13.46;51.25
25420;BME280;13354;48.174;11.566;2022-11-15T09:37:35;95275.09;;;13.68;50.43
25420;BME280;13354;48.174;11.566;2022-11-15T09:40:01;95267.25;;;13.54;50.64
25420;BME280;13354;48.174;11.566;2022-11-15T09:50:28;95245.56;;;14.24;48.74
25420;BME280;13354;48.174;11.566;2022-11-15T09:52:56;95241.63;;;14.27;49.41
25420;BME280;13354;48.174;11.566;2022-11-15T09:55:34;95238.44;;;14.07;49.46
25420;BME280;13354;48.174;11.566;2022-11-15T09:58:26;95231.50;;;13.87;50.86
25420;BME280;13354;48.174;11.566;2022-11-15T10:00:56;95232.09;;;13.89;49.88
25420;BME280;13354;48.174;11.566;2022-11-15T10:03:29;95225.53;;;13.92;50.39
25420;BME280;13354;48.174;11.566;2022-11-15T10:06:01;95234.19;;;13.99;50.37
25420;BME280;13354;48.174;11.566;2022-11-15T10:08:37;95220.53;;;13.95;49.81
25420;BME280;13354;48.174;11.566;2022-11-15T10:11:18;95222.09;;;14.03;49.62
25420;BME280;13354;48.174;11.566;2022-11-15T10:13:46;95211.19;;;14.23;49.36
25420;BME280;13354;48.174;11.566;2022-11-15T10:24:25;95203.72;;;14.85;47.43
25420;BME280;13354;48.174;11.566;2022-11-15T10:26:53;95199.56;;;14.89;48.24
25420;BME280;13354;48.174;11.566;2022-11-15T10:29:26;95187.72;;;15.20;47.57
25420;BME280;13354;48.174;11.566;2022-11-15T10:31:52;95190.75;;;15.12;47.06
25420;BME280;13354;48.174;11.566;2022-11-15T10:34:20;95178.19;;;15.60;45.92
25420;BME280;13354;48.174;11.566;2022-11-15T10:36:54;95178.09;;;15.43;45.42
25420;BME280;13354;48.174;11.566;2022-11-15T10:39:20;95172.75;;;15.55;45.96
25420;BME280;13354;48.174;11.566;2022-11-15T10:41:45;95166.47;;;16.01;45.40
25420;BME280;13354;48.174;11.566;2022-11-15T10:46:43;95155.06;;;16.34;44.00
25420;BME280;13354;48.174;11.566;2022-11-15T10:49:20;95156.16;;;16.50;44.06
25420;BME280;13354;48.174;11.566;2022-11-15T10:51:57;95153.16;;;16.63;43.04
25420;BME280;13354;48.174;11.566;2022-11-15T10:56:59;95150.59;;;17.02;44.06
25420;BME280;13354;48.174;11.566;2022-11-15T10:59:30;95139.16;;;17.07;42.87
25420;BME280;13354;48.174;11.566;2022-11-15T11:02:00;95135.34;;;17.20;40.99
25420;BME280;13354;48.174;11.566;2022-11-15T11:04:25;95131.38;;;17.05;40.76
25420;BME280;13354;48.174;11.566;2022-11-15T11:06:58;95133.41;;;16.98;40.93
25420;BME280;13354;48.174;11.566;2022-11-15T11:09:33;95130.81;;;17.03;40.87
25420;BME280;13354;48.174;11.566;2022-11-15T11:12:08;95128.63;;;17.00;41.63
25420;BME280;13354;48.174;11.566;2022-11-15T11:14:36;95116.72;;;17.30;40.10
25420;BME280;13354;48.174;11.566;2022-11-15T11:25:40;95101.88;;;17.61;41.84
25420;BME280;13354;48.174;11.566;2022-11-15T11:40:05;95087.50;;;17.23;42.26
25420;BME280;13354;48.174;11.566;2022-11-15T11:42:59;95079.50;;;17.06;41.62
25420;BME280;13354;48.174;11.566;2022-11-15T11:45:42;95083.53;;;16.87;42.46
25420;BME280;13354;48.174;11.566;2022-11-15T11:48:43;95071.94;;;16.81;41.62
25420;BME280;13354;48.174;11.566;2022-11-15T11:51:25;95078.03;;;16.77;41.88
25420;BME280;13354;48.174;11.566;2022-11-15T11:54:04;95075.19;;;16.83;42.74
25420;BME280;13354;48.174;11.566;2022-11-15T11:56:36;95058.56;;;16.81;42.74
25420;BME280;13354;48.174;11.566;2022-11-15T12:02:15;95056.47;;;16.83;41.90
25420;BME280;13354;48.174;11.566;2022-11-15T12:04:50;95054.19;;;16.92;42.02
25420;BME280;13354;48.174;11.566;2022-11-15T12:07:24;95054.94;;;16.87;41.40
25420;BME280;13354;48.174;11.566;2022-11-15T12:09:55;95041.69;;;16.98;41.75
25420;BME280;13354;48.174;11.566;2022-11-15T12:12:52;95040.19;;;17.07;41.45
25420;BME280;13354;48.174;11.566;2022-11-15T12:18:12;95034.72;;;17.41;41.12
25420;BME280;13354;48.174;11.566;2022-11-15T12:20:42;95040.19;;;18.00;40.71
25420;BME280;13354;48.174;11.566;2022-11-15T12:23:47;95037.59;;;18.10;40.56
25420;BME280;13354;48.174;11.566;2022-11-15T12:26:21;95036.69;;;18.26;40.34
25420;BME280;13354;48.174;11.566;2022-11-15T12:29:00;95032.97;;;18.32;39.97
25420;BME280;13354;48.174;11.566;2022-11-15T12:31:38;95027.81;;;18.26;39.77
25420;BME280;13354;48.174;11.566;2022-11-15T12:36:48;95023.22;;;18.58;39.39
25420;BME280;13354;48.174;11.566;2022-11-15T12:39:15;95008.94;;;18.80;39.26
25420;BME280;13354;48.174;11.566;2022-11-15T12:41:43;95010.88;;;18.95;39.13
25420;BME280;13354;48.174;11.566;2022-11-15T12:44:56;95012.41;;;19.43;38.56
25420;BME280;13354;48.174;11.566;2022-11-15T12:47:03;95012.13;;;19.40;39.20
25420;BME280;13354;48.174;11.566;2022-11-15T13:02:24;95001.81;;;19.94;39.76
25420;BME280;13354;48.174;11.566;2022-11-15T13:15:31;94994.19;;;19.45;41.08
25420;BME280;13354;48.174;11.566;2022-11-15T13:17:58;94995.78;;;19.41;41.44
25420;BME280;13354;48.174;11.566;2022-11-15T13:20:32;94992.50;;;19.29;42.14
25420;BME280;13354;48.174;11.566;2022-11-15T13:23:10;94992.13;;;19.00;42.01
25420;BME280;13354;48.174;11.566;2022-11-15T13:30:56;94989.34;;;18.74;42.21
25420;BME280;13354;48.174;11.566;2022-11-15T13:35:58;95002.53;;;18.49;41.07
25420;BME280;13354;48.174;11.566;2022-11-15T13:40:49;94988.00;;;18.40;42.74
25420;BME280;13354;48.174;11.566;2022-11-15T13:46:18;94997.81;;;18.24;43.60
25420;BME280;13354;48.174;11.566;2022-11-15T13:48:45;94990.28;;;18.21;42.96
25420;BME280;13354;48.174;11.566;2022-11-15T13:51:34;94984.22;;;18.03;44.13
25420;BME280;13354;48.174;11.566;2022-11-15T13:54:19;94985.22;;;17.92;44.03
25420;BME280;13354;48.174;11.566;2022-11-15T13:56:52;94981.53;;;17.71;44.91
25420;BME280;13354;48.174;11.566;2022-11-15T13:59:25;94986.09;;;17.49;45.79
25420;BME280;13354;48.174;11.566;2022-11-15T14:01:53;94977.13;;;17.33;46.06
25420;BME280;13354;48.174;11.566;2022-11-15T14:04:22;94975.81;;;17.35;45.67
25420;BME280;13354;48.174;11.566;2022-11-15T14:06:56;94974.78;;;17.14;45.52
25420;BME280;13354;48.174;11.566;2022-11-15T14:11:53;94977.75;;;16.96;47.12
25420;BME280;13354;48.174;11.566;2022-11-15T14:14:25;94997.16;;;16.86;47.64
25420;BME280;13354;48.174;11.566;2022-11-15T14:16:58;94985.41;;;16.71;47.65
25420;BME280;13354;48.174;11.566;2022-11-15T14:24:42;94983.50;;;16.10;51.44
25420;BME280;13354;48.174;11.566;2022-11-15T14:27:22;94988.00;;;15.93;51.87
25420;BME280;13354;48.174;11.566;2022-11-15T14:29:49;94987.19;;;15.76;52.45
25420;BME280;13354;48.174;11.566;2022-11-15T14:32:20;94989.34;;;15.62;53.64
25420;BME280;13354;48.174;11.566;2022-11-15T14:34:53;94987.19;;;15.47;53.57
25420;BME280;13354;48.174;11.566;2022-11-15T14:37:29;94984.00;;;15.33;54.20
25420;BME280;13354;48.174;11.566;2022-11-15T14:39:58;94994.66;;;15.33;54.54
25420;BME280;13354;48.174;11.566;2022-11-15T14:42:24;94998.63;;;15.31;55.00
25420;BME280;13354;48.174;11.566;2022-11-15T14:44:50;94991.59;;;15.25;54.67
25420;BME280;13354;48.174;11.566;2022-11-15T14:47:16;94990.91;;;15.17;54.70
25420;BME280;13354;48.174;11.566;2022-11-15T14:49:41;94989.56;;;15.03;55.22
25420;BME280;13354;48.174;11.566;2022-11-15T14:52:24;94987.41;;;14.88;55.84
25420;BME280;13354;48.174;11.566;2022-11-15T14:54:50;94994.25;;;14.72;56.23
25420;BME280;13354;48.174;11.566;2022-11-15T14:57:16;94990.69;;;14.67;56.84
25420;BME280;13354;48.174;11.566;2022-11-15T14:59:41;94983.06;;;14.59;57.26
25420;BME280;13354;48.174;11.566;2022-11-15T15:02:26;94983.06;;;14.59;57.26